Погода Баторувкона 2 недели

Великопольское воеводство, Польша

19 июля-01 августа
  • 19июля
    Сегодня
    +10°
    +24°
    Облачно с прояснениями
    ВремяПогодаТемператураВлажностьДавлениеВетер, м/сВероятность осадков
    02:00Ясно и безоблачно+13°C94 %753 мм2.3 м/с2 %
    05:00Ясно и безоблачно+12°C97 %753 мм2.0 м/с2 %
    08:00Ясно и безоблачно+18°C79 %753 мм1.4 м/с2 %
    11:00Небольшая облачность+22°C61 %753 мм3.9 м/с2 %
    14:00Облачно с прояснениями+24°C55 %752 мм3.1 м/с2 %
    17:00Облачно с прояснениями+24°C56 %751 мм2.7 м/с2 %
    20:00Ясно и безоблачно+22°C71 %750 мм1.9 м/с2 %
    23:00Ясно и безоблачно+16°C92 %750 мм2.0 м/с2 %
  • 20июля
    Суббота
    +14°
    +26°
    Ясно и безоблачно
    ВремяПогодаТемператураВлажностьДавлениеВетер, м/сВероятность осадков
    02:00Облачно с прояснениями+13°C95 %749 мм2.0 м/с2 %
    05:00Облачно с прояснениями+11°C99 %748 мм1.5 м/с2 %
    08:00Ясно и безоблачно+18°C85 %748 мм0.6 м/с2 %
    11:00Ясно и безоблачно+23°C47 %748 мм0.9 м/с2 %
    14:00Ясно и безоблачно+25°C41 %747 мм0.9 м/с2 %
    17:00Ясно и безоблачно+25°C43 %746 мм1.2 м/с2 %
    20:00Ясно и безоблачно+24°C72 %745 мм1.4 м/с2 %
    23:00Ясно и безоблачно+18°C82 %745 мм2.8 м/с2 %
  • 21июля
    Воскресенье
    +16°
    +28°
    Практически безоблачно
    ВремяПогодаТемператураВлажностьДавлениеВетер, м/сВероятность осадков
    02:00Ясно и безоблачно+15°C89 %744 мм2.3 м/с2 %
    05:00Ясно и безоблачно+14°C92 %744 мм1.9 м/с2 %
    08:00Ясно и безоблачно+20°C79 %744 мм1.8 м/с2 %
    11:00Ясно и безоблачно+25°C56 %744 мм1.9 м/с2 %
    14:00Практически безоблачно+27°C49 %744 мм1.2 м/с2 %
    17:00Небольшая облачность+27°C43 %743 мм1.2 м/с2 %
    20:00Ясно и безоблачно+25°C61 %743 мм2.5 м/с2 %
    23:00Облачно с прояснениями+19°C73 %743 мм3.5 м/с2 %
  • 22июля
    Понедельник
    +13°
    +28°
    Облачно с прояснениями
    ВремяПогодаТемператураВлажностьДавлениеВетер, м/сВероятность осадков
    02:00Ясно и безоблачно+17°C80 %743 мм2.6 м/с2 %
    05:00Ясно и безоблачно+16°C86 %743 мм2.7 м/с4 %
    08:00Ясно и безоблачно+21°C77 %744 мм1.8 м/с16 %
    11:00Облачно с прояснениями+26°C54 %744 мм2.4 м/с35 %
    14:00Облачно с прояснениями+28°C42 %744 мм1.9 м/с44 %
    17:00Пасмурно, ливень+21°C87 %745 мм3.2 м/с49 %
    20:00Небольшая облачность, ливень+20°C92 %745 мм2.5 м/с44 %
    23:00Небольшая облачность и лёгкий дождик+18°C95 %746 мм3.9 м/с25 %
  • 23июля
    Вторник
    +13°
    +22°
    Практически безоблачно
    ВремяПогодаТемператураВлажностьДавлениеВетер, м/сВероятность осадков
    02:00Ясно и безоблачно+16°C95 %747 мм3.7 м/с27 %
    05:00Ясно и безоблачно+14°C95 %747 мм3.1 м/с27 %
    08:00Ясно и безоблачно+17°C83 %748 мм3.7 м/с28 %
    11:00Ясно и безоблачно+19°C63 %748 мм3.5 м/с41 %
    14:00Практически безоблачно+22°C52 %748 мм3.1 м/с45 %
    17:00Практически безоблачно+22°C49 %748 мм2.2 м/с37 %
    20:00Ясно и безоблачно+21°C65 %747 мм1.4 м/с22 %
    23:00Ясно и безоблачно+16°C80 %747 мм2.3 м/с23 %
Мы используем cookies
Соглашаюсь